Time;durP1;ratioP1;P1;durP2;ratioP2;P2;SDS_P1;SDS_P2;PMS_P1;PMS_P2;Temp;Humidity;BMP_temperature;BMP_pressure;BME280_temperature;BME280_humidity;BME280_pressure;Samples;Min_cycle;Max_cycle;Signal;HPM_P1;HPM_P2
2023/04/29 00:01:57;;;;;;;73.05;36.45;;;;;;;8.97;100.00;101439.72;5102178;28;20024;-78
2023/04/29 00:04:23;;;;;;;72.63;36.60;;;;;;;8.93;100.00;101452.75;5112621;28;20395;-78
2023/04/29 00:06:49;;;;;;;73.97;36.03;;;;;;;8.93;100.00;101447.53;5110607;28;20480;-78
2023/04/29 00:09:14;;;;;;;67.28;34.00;;;;;;;8.86;100.00;101445.00;5106294;28;20346;-78
2023/04/29 00:11:39;;;;;;;68.97;35.50;;;;;;;8.86;100.00;101449.31;5106074;28;20383;-79
2023/04/29 00:14:05;;;;;;;68.95;35.45;;;;;;;8.77;100.00;101441.59;5113980;28;20051;-78
2023/04/29 00:16:30;;;;;;;67.85;33.95;;;;;;;8.78;100.00;101440.72;5105688;28;20127;-78
2023/04/29 00:18:56;;;;;;;63.58;34.85;;;;;;;8.83;100.00;101444.16;5112143;28;20110;-78
2023/04/29 00:21:21;;;;;;;76.63;35.50;;;;;;;8.78;100.00;101444.19;5111377;28;20027;-78
2023/04/29 00:23:47;;;;;;;69.55;35.95;;;;;;;8.82;100.00;101453.69;5110808;28;20338;-78
2023/04/29 00:26:12;;;;;;;64.65;35.20;;;;;;;8.80;100.00;101455.44;5110851;28;20114;-79
2023/04/29 00:28:37;;;;;;;65.07;35.35;;;;;;;8.78;100.00;101457.19;5112909;28;20035;-79
2023/04/29 00:31:02;;;;;;;68.47;35.70;;;;;;;8.80;100.00;101459.78;5107803;28;20032;-79
2023/04/29 00:33:28;;;;;;;65.00;34.30;;;;;;;8.83;100.00;101465.81;5101803;28;20102;-78
2023/04/29 00:35:53;;;;;;;67.18;35.45;;;;;;;8.90;100.00;101467.50;5113397;28;20082;-78
2023/04/29 00:38:19;;;;;;;61.90;32.83;;;;;;;8.90;100.00;101462.31;5107904;28;20052;-79
2023/04/29 00:40:45;;;;;;;66.75;35.30;;;;;;;8.91;100.00;101468.38;5099930;28;20093;-78
2023/04/29 00:43:11;;;;;;;59.78;32.90;;;;;;;8.78;100.00;101456.31;5101877;28;20027;-79
2023/04/29 00:45:36;;;;;;;55.40;31.25;;;;;;;8.82;100.00;101466.69;5109793;28;20497;-79
2023/04/29 00:48:01;;;;;;;51.50;31.10;;;;;;;8.77;100.00;101475.41;5100109;28;20103;-78
2023/04/29 00:50:27;;;;;;;52.33;30.42;;;;;;;8.73;100.00;101468.47;5111284;28;20543;-78
2023/04/29 00:52:52;;;;;;;49.30;29.75;;;;;;;8.77;100.00;101470.19;5109655;28;20031;-79
2023/04/29 00:55:18;;;;;;;48.33;27.25;;;;;;;8.74;100.00;101478.00;5101198;28;20077;-78
2023/04/29 00:57:47;;;;;;;46.72;27.45;;;;;;;8.70;100.00;101478.88;5109075;28;20435;-78
2023/04/29 01:00:15;;;;;;;43.58;27.67;;;;;;;8.63;100.00;101478.06;5107622;28;20031;-79
2023/04/29 01:02:41;;;;;;;41.97;27.33;;;;;;;8.58;100.00;101480.69;5110742;28;20027;-78
2023/04/29 01:05:06;;;;;;;40.15;26.60;;;;;;;8.58;100.00;101480.69;5104906;28;20024;-78
2023/04/29 01:08:07;;;;;;;44.20;27.48;;;;;;;8.59;100.00;101486.75;5095507;28;20028;-78
2023/04/29 01:10:43;;;;;;;40.75;26.35;;;;;;;8.59;100.00;101486.75;5090792;28;20039;-78
2023/04/29 01:13:41;;;;;;;40.92;26.45;;;;;;;8.62;100.00;101484.13;5098728;28;20067;-78
2023/04/29 01:16:11;;;;;;;43.60;27.55;;;;;;;8.59;100.00;101489.34;5105437;28;20028;-78
2023/04/29 01:18:48;;;;;;;41.92;27.58;;;;;;;8.55;100.00;101498.03;5107485;28;20032;-78
2023/04/29 01:21:14;;;;;;;39.13;26.63;;;;;;;8.54;100.00;101498.91;5104367;28;20020;-79
2023/04/29 01:23:40;;;;;;;45.05;28.15;;;;;;;8.51;100.00;101496.31;5108513;28;20023;-79
2023/04/29 01:26:07;;;;;;;46.75;28.35;;;;;;;8.52;100.00;101508.44;5109125;28;20031;-78
2023/04/29 01:28:35;;;;;;;44.72;27.52;;;;;;;8.55;100.00;101503.22;5097434;28;20039;-79
2023/04/29 01:31:23;;;;;;;44.03;27.83;;;;;;;8.58;100.00;101511.00;5106937;28;20417;-78
2023/04/29 01:34:29;;;;;;;47.67;29.08;;;;;;;8.63;100.00;101510.13;5109269;28;20038;-78
2023/04/29 01:37:18;;;;;;;49.75;29.17;;;;;;;8.62;100.00;101510.97;5096264;28;20425;-78
2023/04/29 01:40:04;;;;;;;48.38;29.95;;;;;;;8.63;100.00;101512.72;5088856;28;20367;-78
2023/04/29 01:42:37;;;;;;;43.97;29.40;;;;;;;8.64;100.00;101516.19;5103359;28;20360;-78
2023/04/29 01:45:07;;;;;;;54.60;31.48;;;;;;;8.64;100.00;101511.84;5108299;28;20036;-78
2023/04/29 01:47:32;;;;;;;47.78;28.90;;;;;;;8.67;100.00;101511.84;5105797;28;20036;-78
2023/04/29 01:49:58;;;;;;;47.88;29.77;;;;;;;8.68;100.00;101510.09;5103798;28;20027;-78
2023/04/29 01:52:23;;;;;;;47.85;30.00;;;;;;;8.73;100.00;101520.47;5101905;28;20036;-78
2023/04/29 01:54:48;;;;;;;46.10;29.55;;;;;;;8.66;100.00;101515.31;5110213;28;20038;-78
2023/04/29 01:57:14;;;;;;;51.88;29.63;;;;;;;8.73;100.00;101520.47;5109903;28;20028;-78
2023/04/29 01:59:39;;;;;;;47.28;29.83;;;;;;;8.70;100.00;101521.38;5109909;28;20019;-78
2023/04/29 02:02:04;;;;;;;48.85;30.00;;;;;;;8.72;100.00;101519.59;5100068;28;20020;-79
2023/04/29 02:04:32;;;;;;;53.55;30.75;;;;;;;8.72;100.00;101517.00;5110597;28;20023;-78
2023/04/29 02:06:58;;;;;;;50.58;30.90;;;;;;;8.74;100.00;101523.06;5114126;28;20027;-78
2023/04/29 02:09:23;;;;;;;53.60;31.20;;;;;;;8.71;100.00;101517.03;5103116;28;20028;-78
2023/04/29 02:11:48;;;;;;;54.20;32.60;;;;;;;8.71;100.00;101527.41;5107466;28;20362;-79
2023/04/29 02:14:13;;;;;;;58.42;32.05;;;;;;;8.68;100.00;101530.88;5103331;28;20044;-78
2023/04/29 02:16:39;;;;;;;56.45;31.52;;;;;;;8.72;100.00;101532.59;5112299;28;20481;-79
2023/04/29 02:19:04;;;;;;;51.85;32.17;;;;;;;8.72;100.00;101534.34;5113868;28;20078;-78
2023/04/29 02:21:30;;;;;;;57.97;34.13;;;;;;;8.72;100.00;101540.41;5106869;28;20050;-78
2023/04/29 02:23:55;;;;;;;59.38;31.50;;;;;;;8.66;100.00;101532.63;5114212;28;20122;-78
2023/04/29 02:26:21;;;;;;;57.75;32.72;;;;;;;8.74;100.00;101537.81;5112265;28;20511;-78
2023/04/29 02:28:46;;;;;;;56.35;32.05;;;;;;;8.74;100.00;101549.06;5114915;28;20080;-78
2023/04/29 02:31:12;;;;;;;57.22;31.90;;;;;;;8.72;100.00;101548.19;5109668;28;20027;-79
2023/04/29 02:33:37;;;;;;;60.55;33.28;;;;;;;8.72;100.00;101549.94;5114418;28;20027;-78
2023/04/29 02:36:03;;;;;;;60.55;33.90;;;;;;;8.69;100.00;101553.41;5111457;28;20020;-78
2023/04/29 02:38:28;;;;;;;60.15;34.60;;;;;;;8.72;100.00;101561.19;5108755;27;20047;-79
2023/04/29 02:40:54;;;;;;;58.63;34.00;;;;;;;8.73;100.00;101560.34;5115265;27;20023;-78
2023/04/29 02:43:19;;;;;;;57.33;33.88;;;;;;;8.70;100.00;101555.16;5106111;28;20027;-79
2023/04/29 02:45:44;;;;;;;64.43;35.08;;;;;;;8.68;100.00;101568.16;5106706;28;20046;-78
2023/04/29 02:48:10;;;;;;;64.15;35.25;;;;;;;8.61;100.00;101566.44;5112613;28;20039;-78
2023/04/29 02:50:35;;;;;;;65.93;36.08;;;;;;;8.59;100.00;101575.97;5108648;28;20036;-78
2023/04/29 02:53:00;;;;;;;60.47;34.42;;;;;;;8.59;100.00;101580.31;5095229;28;20016;-78
2023/04/29 02:55:26;;;;;;;62.78;35.47;;;;;;;8.52;100.00;101566.47;5096546;28;20034;-79
2023/04/29 02:57:51;;;;;;;65.32;34.50;;;;;;;8.57;100.00;101575.13;5103015;28;20023;-79
2023/04/29 03:00:17;;;;;;;64.15;34.92;;;;;;;8.54;100.00;101582.94;5109129;27;20038;-78
2023/04/29 03:02:42;;;;;;;62.47;35.45;;;;;;;8.52;100.00;101584.66;5104456;28;20107;-78
2023/04/29 03:05:08;;;;;;;64.55;33.38;;;;;;;8.52;100.00;101589.88;5114865;28;20020;-78
2023/04/29 03:07:33;;;;;;;65.25;34.08;;;;;;;8.45;100.00;101577.75;5110685;28;20476;-78
2023/04/29 03:09:58;;;;;;;63.40;33.30;;;;;;;8.45;100.00;101575.16;5112609;28;20027;-78
2023/04/29 03:12:23;;;;;;;64.72;34.78;;;;;;;8.47;100.00;101586.44;5113455;28;20110;-78
2023/04/29 03:14:49;;;;;;;64.82;34.08;;;;;;;8.43;100.00;101587.28;5110576;28;20047;-78
2023/04/29 03:17:14;;;;;;;67.47;34.42;;;;;;;8.42;100.00;101580.38;5105091;28;20236;-79
2023/04/29 03:19:40;;;;;;;64.80;34.63;;;;;;;8.42;100.00;101591.63;5106935;28;20111;-79
2023/04/29 03:22:07;;;;;;;60.72;34.20;;;;;;;8.42;100.00;101589.03;5102500;28;20072;-79
2023/04/29 03:24:32;;;;;;;61.45;32.55;;;;;;;8.41;100.00;101589.03;5113973;28;20116;-78
2023/04/29 03:26:59;;;;;;;62.97;34.28;;;;;;;8.38;100.00;101592.50;5111312;28;20032;-78
2023/04/29 03:29:25;;;;;;;70.72;35.00;;;;;;;8.34;100.00;101595.09;5109989;28;20023;-79
2023/04/29 03:31:50;;;;;;;71.97;35.97;;;;;;;8.34;100.00;101600.28;5106552;28;20024;-79
2023/04/29 03:34:15;;;;;;;67.30;34.42;;;;;;;8.32;100.00;101605.47;5108688;28;20034;-79
2023/04/29 03:36:41;;;;;;;65.95;34.40;;;;;;;8.28;100.00;101601.16;5114924;28;20020;-79
2023/04/29 03:39:06;;;;;;;70.18;35.20;;;;;;;8.25;100.00;101611.56;5109641;28;20463;-79
2023/04/29 03:41:31;;;;;;;69.22;35.55;;;;;;;8.22;100.00;101598.56;5097520;28;20054;-79
2023/04/29 03:43:59;;;;;;;65.25;34.35;;;;;;;8.29;100.00;101607.22;5108252;28;20041;-79
2023/04/29 03:46:25;;;;;;;66.72;34.53;;;;;;;8.29;100.00;101615.00;5109812;28;20028;-79
2023/04/29 03:48:51;;;;;;;67.85;34.53;;;;;;;8.25;100.00;101611.56;5111489;28;20038;-79
2023/04/29 03:51:17;;;;;;;66.82;35.00;;;;;;;8.20;100.00;101614.13;5111322;28;20027;-79
2023/04/29 03:53:43;;;;;;;64.88;33.35;;;;;;;8.24;100.00;101609.84;5113199;28;20043;-79
2023/04/29 03:56:08;;;;;;;68.82;34.35;;;;;;;8.22;100.00;101616.75;5111519;28;20061;-79
2023/04/29 03:58:33;;;;;;;57.55;32.88;;;;;;;8.24;100.00;101620.22;5102587;28;20051;-79
2023/04/29 04:00:59;;;;;;;61.58;34.03;;;;;;;8.22;100.00;101611.56;5103423;28;20024;-80
2023/04/29 04:03:26;;;;;;;69.75;33.35;;;;;;;8.21;100.00;101609.84;5098868;28;20030;-79
2023/04/29 04:05:51;;;;;;;64.32;32.90;;;;;;;8.25;100.00;101627.13;5114201;28;20051;-79
2023/04/29 04:08:17;;;;;;;62.85;33.35;;;;;;;8.27;100.00;101621.94;5110100;28;20059;-79
2023/04/29 04:10:43;;;;;;;64.63;32.72;;;;;;;8.30;100.00;101627.13;5110609;28;20115;-79
2023/04/29 04:13:08;;;;;;;56.60;31.92;;;;;;;8.32;100.00;101630.59;5110139;28;20541;-79
2023/04/29 04:15:33;;;;;;;60.42;32.55;;;;;;;8.29;100.00;101623.66;5111273;27;20454;-79
2023/04/29 04:17:58;;;;;;;67.53;33.55;;;;;;;8.34;100.00;101634.06;5105271;28;20023;-79
2023/04/29 04:20:24;;;;;;;62.05;31.92;;;;;;;8.32;100.00;101634.06;5108346;28;20454;-80
2023/04/29 04:22:50;;;;;;;65.68;32.40;;;;;;;8.32;100.00;101628.84;5110596;28;20036;-79
2023/04/29 04:25:16;;;;;;;53.92;31.50;;;;;;;8.35;100.00;101639.25;5113136;28;20069;-79
2023/04/29 04:27:41;;;;;;;52.50;29.58;;;;;;;8.28;100.00;101631.47;5110078;28;20024;-79
2023/04/29 04:30:07;;;;;;;54.75;30.15;;;;;;;8.32;100.00;101643.59;5109834;28;20522;-79
2023/04/29 04:32:33;;;;;;;52.65;29.90;;;;;;;8.33;100.00;101640.97;5108254;28;20023;-79
2023/04/29 04:34:58;;;;;;;58.22;29.77;;;;;;;8.34;100.00;101652.25;5113260;28;20055;-80
2023/04/29 04:37:23;;;;;;;61.50;31.42;;;;;;;8.33;100.00;101643.56;5110267;28;20089;-79
2023/04/29 04:39:49;;;;;;;63.05;32.30;;;;;;;8.37;100.00;101654.81;5108753;28;20033;-79
2023/04/29 04:42:14;;;;;;;51.15;29.83;;;;;;;8.37;100.00;101657.41;5110579;28;20077;-79
2023/04/29 04:44:39;;;;;;;53.30;29.63;;;;;;;8.37;100.00;101663.50;5112760;28;20094;-79
2023/04/29 04:47:05;;;;;;;58.92;30.60;;;;;;;8.36;100.00;101655.69;5102252;28;20389;-79
2023/04/29 04:49:30;;;;;;;59.33;29.73;;;;;;;8.38;100.00;101667.84;5105813;28;20022;-80
2023/04/29 04:51:55;;;;;;;51.45;30.08;;;;;;;8.35;100.00;101673.03;5106828;28;20032;-79
2023/04/29 04:54:21;;;;;;;55.65;28.77;;;;;;;8.40;100.00;101683.44;5109020;28;20731;-79
2023/04/29 04:56:47;;;;;;;56.60;30.13;;;;;;;8.43;100.00;101679.09;5105235;28;20080;-79
2023/04/29 04:59:12;;;;;;;58.42;30.20;;;;;;;8.46;100.00;101688.63;5103936;28;20027;-79
2023/04/29 05:01:38;;;;;;;49.40;28.50;;;;;;;8.49;100.00;101693.81;5095611;28;20482;-79
2023/04/29 05:04:03;;;;;;;51.35;29.33;;;;;;;8.48;100.00;101692.09;5092052;28;20433;-79
2023/04/29 05:06:28;;;;;;;53.67;28.33;;;;;;;8.49;100.00;101696.41;5109827;28;20028;-79
2023/04/29 05:08:53;;;;;;;54.42;28.20;;;;;;;8.46;100.00;101693.81;5107032;28;20436;-79
2023/04/29 05:11:22;;;;;;;51.00;28.33;;;;;;;8.46;100.00;101691.22;5110519;28;20031;-79
2023/04/29 05:13:48;;;;;;;49.60;28.08;;;;;;;8.53;100.00;101705.06;5108534;28;20043;-80
2023/04/29 05:16:13;;;;;;;49.72;27.05;;;;;;;8.48;100.00;101696.44;5109629;28;20790;-79
2023/04/29 05:18:39;;;;;;;47.53;27.42;;;;;;;8.49;100.00;101701.63;5101872;28;20035;-79
2023/04/29 05:21:04;;;;;;;49.40;27.58;;;;;;;8.48;100.00;101705.09;5092341;28;20111;-79
2023/04/29 05:23:30;;;;;;;50.38;27.30;;;;;;;8.48;100.00;101701.63;5110237;28;20028;-79
2023/04/29 05:25:55;;;;;;;45.53;27.05;;;;;;;8.51;100.00;101707.69;5111221;28;20522;-79
2023/04/29 05:28:21;;;;;;;47.53;27.38;;;;;;;8.52;100.00;101714.59;5108314;28;20031;-79
2023/04/29 05:30:50;;;;;;;48.40;27.45;;;;;;;8.50;100.00;101713.75;5110543;28;20073;-79
2023/04/29 05:33:15;;;;;;;46.15;26.92;;;;;;;8.53;100.00;101711.13;5102691;28;20039;-79
2023/04/29 05:35:40;;;;;;;46.88;27.35;;;;;;;8.50;100.00;101711.16;5112467;28;20016;-80
2023/04/29 05:38:06;;;;;;;45.22;26.85;;;;;;;8.57;100.00;101725.03;5114516;28;20027;-79
2023/04/29 05:40:31;;;;;;;46.83;26.38;;;;;;;8.53;100.00;101726.72;5110366;28;20028;-79
2023/04/29 05:42:56;;;;;;;45.13;25.63;;;;;;;8.46;100.00;101714.59;5114936;28;20120;-79
2023/04/29 05:45:22;;;;;;;47.42;26.05;;;;;;;8.53;100.00;101731.91;5109547;28;20024;-80
2023/04/29 05:47:47;;;;;;;43.58;25.02;;;;;;;8.59;100.00;101739.72;5113708;28;20534;-79
2023/04/29 05:50:12;;;;;;;44.60;26.63;;;;;;;8.63;100.00;101744.06;5105967;28;20042;-79
2023/04/29 05:52:38;;;;;;;46.53;25.92;;;;;;;8.63;100.00;101744.06;5097771;28;20027;-79
2023/04/29 05:55:03;;;;;;;45.33;26.38;;;;;;;8.63;100.00;101743.19;5114872;28;20485;-79
2023/04/29 05:57:29;;;;;;;43.78;25.85;;;;;;;8.68;100.00;101752.72;5113375;28;20023;-79
2023/04/29 05:59:54;;;;;;;43.08;25.55;;;;;;;8.71;100.00;101756.19;5106384;28;20047;-79
2023/04/29 06:02:20;;;;;;;44.10;26.25;;;;;;;8.73;100.00;101755.31;5098006;28;20047;-79
2023/04/29 06:04:46;;;;;;;43.55;25.10;;;;;;;8.73;100.00;101760.53;5114784;28;20028;-79
2023/04/29 06:07:12;;;;;;;39.05;24.80;;;;;;;8.79;100.00;101762.22;5113775;28;20056;-79
2023/04/29 06:09:38;;;;;;;39.92;24.48;;;;;;;8.82;100.00;101763.09;5107024;28;20028;-79
2023/04/29 06:12:04;;;;;;;41.45;25.38;;;;;;;8.86;100.00;101766.53;5111957;28;20077;-79
2023/04/29 06:14:29;;;;;;;40.13;24.52;;;;;;;8.85;100.00;101770.03;5111629;28;20048;-79
2023/04/29 06:16:54;;;;;;;44.08;24.88;;;;;;;8.88;100.00;101777.81;5108790;27;20107;-79
2023/04/29 06:19:20;;;;;;;40.50;24.58;;;;;;;8.85;100.00;101777.81;5112728;28;20042;-79
2023/04/29 06:21:45;;;;;;;41.78;25.10;;;;;;;8.87;100.00;101782.16;5113391;28;20027;-79
2023/04/29 06:24:10;;;;;;;38.65;24.73;;;;;;;8.89;100.00;101782.16;5114264;28;20070;-79
2023/04/29 06:26:36;;;;;;;40.67;24.55;;;;;;;8.86;100.00;101774.34;5106148;28;20039;-79
2023/04/29 06:29:01;;;;;;;40.17;25.00;;;;;;;8.88;100.00;101783.03;5112401;28;20024;-79
2023/04/29 06:31:27;;;;;;;44.22;24.73;;;;;;;8.87;100.00;101787.38;5107456;28;20031;-79
2023/04/29 06:33:52;;;;;;;39.47;24.42;;;;;;;8.88;100.00;101788.22;5112233;28;20032;-79
2023/04/29 06:36:17;;;;;;;38.80;24.65;;;;;;;8.87;100.00;101794.31;5114422;28;20034;-79
2023/04/29 06:38:43;;;;;;;41.25;25.40;;;;;;;8.85;100.00;101802.09;5110760;28;20154;-80
2023/04/29 06:41:09;;;;;;;39.08;23.88;;;;;;;8.87;100.00;101805.56;5108484;28;20024;-79
2023/04/29 06:43:34;;;;;;;39.03;24.33;;;;;;;8.83;100.00;101790.84;5101026;28;20031;-79
2023/04/29 06:46:00;;;;;;;41.53;23.80;;;;;;;9.02;100.00;101799.47;5109095;28;20043;-79
2023/04/29 06:48:26;;;;;;;37.72;24.00;;;;;;;9.10;100.00;101815.94;5108308;28;20456;-79
2023/04/29 06:50:56;;;;;;;40.83;24.20;;;;;;;9.19;100.00;101816.78;5107356;28;20027;-79
2023/04/29 06:53:21;;;;;;;39.30;24.58;;;;;;;9.20;100.00;101821.13;5112157;27;20446;-79
2023/04/29 06:55:47;;;;;;;37.85;24.42;;;;;;;9.19;100.00;101819.38;5115436;28;20055;-79
2023/04/29 06:58:13;;;;;;;40.17;24.50;;;;;;;9.25;100.00;101828.03;5113071;28;20027;-79
2023/04/29 07:00:39;;;;;;;40.42;23.02;;;;;;;9.31;100.00;101832.38;5113941;28;20028;-79
2023/04/29 07:03:04;;;;;;;37.15;23.77;;;;;;;9.40;100.00;101842.75;5115349;28;20493;-79
2023/04/29 07:05:29;;;;;;;38.47;23.88;;;;;;;9.51;100.00;101840.97;5114579;28;20046;-79
2023/04/29 07:07:55;;;;;;;42.50;24.20;;;;;;;9.65;100.00;101840.94;5111094;28;20471;-79
2023/04/29 07:10:20;;;;;;;38.30;24.60;;;;;;;9.88;100.00;101846.06;5115595;28;20027;-79
2023/04/29 07:12:46;;;;;;;37.03;22.85;;;;;;;9.97;100.00;101843.41;5112017;28;20360;-79
2023/04/29 07:15:11;;;;;;;34.17;20.92;;;;;;;10.03;100.00;101848.56;5113663;27;20057;-79
2023/04/29 07:17:36;;;;;;;38.13;22.63;;;;;;;10.11;100.00;101847.69;5112530;27;20069;-79
2023/04/29 07:20:03;;;;;;;39.10;23.05;;;;;;;10.16;100.00;101854.59;5105240;28;20119;-78
2023/04/29 07:22:28;;;;;;;36.53;22.70;;;;;;;10.14;100.00;101852.88;5105287;28;20023;-79
2023/04/29 07:24:56;;;;;;;34.25;22.13;;;;;;;10.03;100.00;101851.19;5114891;28;20416;-79
2023/04/29 07:27:22;;;;;;;35.65;22.83;;;;;;;9.97;100.00;101855.56;5112238;28;20028;-79
2023/04/29 07:29:47;;;;;;;34.67;22.60;;;;;;;9.96;100.00;101859.91;5093369;28;20024;-80
2023/04/29 07:32:13;;;;;;;33.08;21.83;;;;;;;9.96;100.00;101862.50;5106110;28;20027;-79
2023/04/29 07:34:39;;;;;;;31.65;21.42;;;;;;;9.99;100.00;101867.72;5113706;28;20016;-79
2023/04/29 07:37:04;;;;;;;35.63;20.83;;;;;;;9.97;100.00;101861.66;5113107;28;20027;-79
2023/04/29 07:39:30;;;;;;;32.38;20.73;;;;;;;10.00;100.00;101869.44;5110116;28;20047;-79
2023/04/29 07:41:55;;;;;;;33.72;22.23;;;;;;;9.96;100.00;101879.88;5110606;28;20032;-79
2023/04/29 07:44:21;;;;;;;35.45;22.35;;;;;;;9.96;100.00;101885.94;5112889;28;20015;-79
2023/04/29 07:46:46;;;;;;;36.75;21.80;;;;;;;9.94;100.00;101879.00;5107257;28;20103;-79
2023/04/29 07:49:12;;;;;;;31.77;21.73;;;;;;;9.97;100.00;101884.22;5107915;28;20032;-79
2023/04/29 07:51:41;;;;;;;32.28;22.48;;;;;;;10.12;100.00;101886.75;5112678;28;20022;-79
2023/04/29 07:54:06;;;;;;;30.70;20.90;;;;;;;10.22;100.00;101879.75;5113705;28;20023;-81
2023/04/29 07:56:31;;;;;;;33.90;20.92;;;;;;;10.33;100.00;101888.41;5110530;27;20487;-80
2023/04/29 07:58:58;;;;;;;37.00;21.13;;;;;;;10.41;100.00;101891.84;5102422;28;20088;-79
2023/04/29 08:01:24;;;;;;;30.77;21.02;;;;;;;10.58;100.00;101891.72;5098166;28;20023;-79
2023/04/29 08:03:49;;;;;;;31.35;20.80;;;;;;;10.85;100.00;101892.41;5102010;28;20114;-78
2023/04/29 08:06:14;;;;;;;34.08;21.42;;;;;;;11.15;100.00;101893.88;5103362;28;20019;-79
2023/04/29 08:08:40;;;;;;;30.23;19.80;;;;;;;11.39;100.00;101898.88;5102199;28;20112;-80
2023/04/29 08:11:05;;;;;;;32.25;20.40;;;;;;;11.64;100.00;101894.28;5091008;28;20119;-79
2023/04/29 08:13:30;;;;;;;29.05;21.00;;;;;;;11.81;100.00;101901.91;5113771;28;20071;-79
2023/04/29 08:15:56;;;;;;;26.92;19.50;;;;;;;11.99;100.00;101889.53;5111766;28;20015;-79
2023/04/29 08:18:21;;;;;;;27.45;18.65;;;;;;;11.96;100.00;101895.66;5113696;28;20047;-79
2023/04/29 08:20:48;;;;;;;25.40;17.63;;;;;;;11.87;100.00;101907.09;5113563;28;20467;-79
2023/04/29 08:23:13;;;;;;;26.25;18.42;;;;;;;11.81;100.00;101901.91;5112951;28;20410;-79
2023/04/29 08:25:42;;;;;;;30.10;19.70;;;;;;;12.01;100.00;101901.72;5113620;28;20023;-79
2023/04/29 08:28:08;;;;;;;24.95;18.20;;;;;;;12.06;100.00;101912.09;5113892;28;20059;-79
2023/04/29 08:30:36;;;;;;;29.08;17.95;;;;;;;12.08;100.00;101892.03;5112972;28;20063;-79
2023/04/29 08:33:02;;;;;;;24.08;17.77;;;;;;;12.21;100.00;101903.19;5113595;28;20028;-79
2023/04/29 08:35:27;;;;;;;24.73;17.88;;;;;;;12.31;100.00;101896.97;5113798;28;20056;-79
2023/04/29 08:37:53;;;;;;;27.63;17.90;;;;;;;12.49;100.00;101904.56;5112798;28;20095;-79
2023/04/29 08:40:18;;;;;;;22.80;16.50;;;;;;;12.57;100.00;101907.06;5113314;28;20527;-79
2023/04/29 08:42:44;;;;;;;25.25;16.73;;;;;;;12.56;100.00;101902.72;5112612;28;20035;-79
2023/04/29 08:45:10;;;;;;;25.67;17.33;;;;;;;12.52;100.00;101916.69;5113742;28;20027;-79
2023/04/29 08:47:36;;;;;;;25.40;17.42;;;;;;;12.49;100.00;101916.75;5113478;28;20026;-79
2023/04/29 08:50:04;;;;;;;28.00;16.15;;;;;;;12.64;100.00;101916.53;5112594;28;20386;-79
2023/04/29 08:52:31;;;;;;;22.73;16.05;;;;;;;12.95;100.00;101909.06;5113173;28;20486;-78
2023/04/29 08:54:58;;;;;;;23.20;16.10;;;;;;;13.23;100.00;101919.06;5113239;28;20115;-79
2023/04/29 08:57:26;;;;;;;22.10;15.70;;;;;;;13.46;100.00;101916.06;5112709;28;20031;-79
2023/04/29 08:59:52;;;;;;;20.23;15.13;;;;;;;13.42;97.38;101917.88;5113157;28;20028;-79
2023/04/29 09:02:20;;;;;;;24.27;15.85;;;;;;;13.20;98.77;101912.13;5113031;28;20527;-79
2023/04/29 09:04:54;;;;;;;19.85;15.05;;;;;;;12.76;99.66;101921.59;5112230;28;20030;-79
2023/04/29 09:07:21;;;;;;;19.65;15.38;;;;;;;12.68;100.00;101918.19;5113368;28;20073;-79
2023/04/29 09:09:47;;;;;;;20.55;16.05;;;;;;;12.94;100.00;101927.41;5113070;28;20024;-79
2023/04/29 09:12:12;;;;;;;26.10;15.88;;;;;;;12.91;100.00;101916.97;5111855;28;20374;-79
2023/04/29 09:14:38;;;;;;;22.35;15.90;;;;;;;12.85;100.00;101926.69;5112470;28;20110;-79
2023/04/29 09:17:03;;;;;;;21.30;15.40;;;;;;;12.76;100.00;101929.44;5113119;28;20027;-79
2023/04/29 09:19:33;;;;;;;23.23;15.52;;;;;;;12.66;100.00;101933.06;5112376;28;20027;-78
2023/04/29 09:21:59;;;;;;;25.13;14.77;;;;;;;12.49;100.00;101929.81;5098819;28;20055;-79
2023/04/29 09:24:26;;;;;;;25.33;14.57;;;;;;;12.39;100.00;101937.81;5112956;28;20058;-79
2023/04/29 09:26:52;;;;;;;22.40;15.25;;;;;;;12.44;100.00;101929.91;5111692;28;20139;-78
2023/04/29 09:29:17;;;;;;;23.02;16.25;;;;;;;12.46;100.00;101927.25;5112813;28;20044;-78
2023/04/29 09:31:43;;;;;;;19.48;14.18;;;;;;;12.38;100.00;101930.84;5112807;28;20379;-79
2023/04/29 09:34:10;;;;;;;20.23;15.27;;;;;;;12.65;100.00;101934.84;5111876;28;20012;-79
2023/04/29 09:36:53;;;;;;;20.33;14.38;;;;;;;13.34;100.00;101925.91;5112930;28;20055;-78
2023/04/29 09:39:21;;;;;;;18.75;14.52;;;;;;;14.14;95.87;101931.34;5111905;28;20031;-79
2023/04/29 09:41:52;;;;;;;19.90;13.35;;;;;;;14.72;91.20;101937.97;5112343;28;20038;-78
2023/04/29 09:44:34;;;;;;;16.08;11.82;;;;;;;15.18;87.58;101937.72;5112781;28;20069;-79
2023/04/29 09:47:01;;;;;;;12.63;11.07;;;;;;;15.52;83.65;101928.94;5111551;28;20470;-79
2023/04/29 09:49:32;;;;;;;16.17;11.55;;;;;;;15.50;77.13;101943.91;5112820;28;20456;-78
2023/04/29 09:51:59;;;;;;;15.98;10.52;;;;;;;15.22;80.12;101943.75;5112376;28;20038;-78
2023/04/29 09:54:27;;;;;;;13.90;10.25;;;;;;;14.96;74.41;101939.13;5111929;28;20046;-78
2023/04/29 09:56:53;;;;;;;17.77;10.88;;;;;;;14.59;77.67;101950.50;5112529;28;20012;-78
2023/04/29 09:59:19;;;;;;;16.48;10.90;;;;;;;14.37;81.90;101944.84;5112489;28;20081;-78
2023/04/29 10:01:56;;;;;;;15.00;10.40;;;;;;;14.38;82.44;101954.41;5111666;28;20111;-78
2023/04/29 10:04:23;;;;;;;14.38;11.32;;;;;;;14.35;82.98;101954.47;5112444;28;20106;-78
2023/04/29 10:06:50;;;;;;;16.55;11.82;;;;;;;14.40;84.26;101950.00;5112152;28;20011;-78
2023/04/29 10:09:17;;;;;;;16.27;11.57;;;;;;;14.52;84.39;101962.91;5111932;28;20080;-78
2023/04/29 10:11:44;;;;;;;21.77;11.52;;;;;;;14.86;83.79;101966.53;5112329;28;20027;-78
2023/04/29 10:14:15;;;;;;;18.40;12.27;;;;;;;15.18;84.90;101969.25;5111525;28;20047;-77
2023/04/29 10:17:08;;;;;;;15.23;10.95;;;;;;;15.27;82.75;101970.78;5111969;28;20481;-78
2023/04/29 10:19:38;;;;;;;14.38;11.07;;;;;;;15.17;76.18;101962.25;5112120;28;20478;-78
2023/04/29 10:22:11;;;;;;;14.65;10.13;;;;;;;15.09;78.00;101961.56;5098700;28;20016;-78
2023/04/29 10:24:38;;;;;;;18.08;10.77;;;;;;;15.04;76.57;101970.47;5114312;28;20047;-78
2023/04/29 10:27:07;;;;;;;14.77;9.57;;;;;;;14.97;77.31;101967.13;5116232;28;20023;-78
2023/04/29 10:29:35;;;;;;;16.00;9.85;;;;;;;14.90;77.85;101971.66;5115444;28;20059;-78
2023/04/29 10:32:03;;;;;;;18.33;10.57;;;;;;;14.74;80.83;101967.66;5115571;28;20076;-78
2023/04/29 10:34:30;;;;;;;14.57;10.43;;;;;;;14.73;80.99;101966.78;5116283;28;20111;-78
2023/04/29 10:36:57;;;;;;;14.40;10.05;;;;;;;14.60;78.96;101967.97;5115108;28;20031;-79
2023/04/29 10:39:38;;;;;;;15.65;10.18;;;;;;;14.50;83.90;101955.94;5115957;28;20024;-78
2023/04/29 10:42:14;;;;;;;13.57;9.82;;;;;;;14.57;81.22;101961.94;5116101;28;20023;-78
2023/04/29 10:45:30;;;;;;;13.25;9.38;;;;;;;14.84;73.15;101969.16;5115840;28;20481;-78
2023/04/29 10:48:01;;;;;;;12.27;9.55;;;;;;;15.02;73.72;101967.03;5114207;28;20038;-78
2023/04/29 10:50:46;;;;;;;10.73;8.80;;;;;;;15.21;77.90;101963.91;5115002;28;20024;-78
2023/04/29 10:53:15;;;;;;;11.05;8.77;;;;;;;15.32;69.87;101966.25;5089151;28;20474;-78
2023/04/29 10:55:41;;;;;;;12.30;8.73;;;;;;;15.53;73.38;101972.75;5115288;28;20441;-78
2023/04/29 10:58:45;;;;;;;11.45;8.10;;;;;;;15.95;75.65;101972.50;5114908;28;20031;-78
2023/04/29 11:01:13;;;;;;;11.02;8.52;;;;;;;16.11;71.39;101972.94;5032548;28;20144;-78
2023/04/29 11:03:44;;;;;;;10.55;8.73;;;;;;;16.30;67.72;101974.13;5099964;28;20036;-78
2023/04/29 11:06:10;;;;;;;12.75;9.23;;;;;;;16.17;64.90;101966.63;5115415;28;20030;-78
2023/04/29 11:08:42;;;;;;;14.90;9.35;;;;;;;16.09;68.96;101970.34;5115617;28;20016;-78
2023/04/29 11:11:08;;;;;;;12.30;8.95;;;;;;;16.09;66.42;101982.66;5114392;28;20036;-78